Time;durP1;ratioP1;P1;durP2;ratioP2;P2;SDS_P1;SDS_P2;PMS_P1;PMS_P2;Temp;Humidity;BMP_temperature;BMP_pressure;BME280_temperature;BME280_humidity;BME280_pressure;Samples;Min_cycle;Max_cycle;Signal;HPM_P1;HPM_P2
2022/10/27 00:03:07;;;;;;;0.10;0.10;;;;;;;10.96;100.00;102063.97;10454039;28;20483;-78
2022/10/27 00:08:11;;;;;;;0.10;0.10;;;;;;;10.93;100.00;102072.25;10466028;28;20025;-78
2022/10/27 00:13:12;;;;;;;0.07;0.07;;;;;;;10.93;100.00;102065.09;10469607;28;20059;-76
2022/10/27 00:18:13;;;;;;;0.10;0.10;;;;;;;10.87;100.00;102071.78;10490232;28;20051;-77
2022/10/27 00:23:14;;;;;;;0.10;0.10;;;;;;;10.79;100.00;102070.75;10473238;28;20060;-78
2022/10/27 00:28:14;;;;;;;0.10;0.10;;;;;;;10.75;100.00;102082.66;10453810;28;20468;-78
2022/10/27 00:33:14;;;;;;;0.00;0.00;;;;;;;10.66;100.00;102089.59;10482886;28;20025;-78
2022/10/27 00:38:14;;;;;;;0.10;0.10;;;;;;;10.64;100.00;102083.53;10482011;28;20044;-78
2022/10/27 00:43:36;;;;;;;0.10;0.10;;;;;;;10.65;100.00;102087.91;10463279;28;20017;-78
2022/10/27 00:48:37;;;;;;;0.10;0.10;;;;;;;10.62;100.00;102098.84;10459007;28;20032;-78
2022/10/27 00:53:37;;;;;;;0.10;0.10;;;;;;;10.62;100.00;102101.50;10452824;28;20587;-78
2022/10/27 00:58:38;;;;;;;0.10;0.10;;;;;;;10.59;100.00;102094.59;10473595;28;20030;-78
2022/10/27 01:03:39;;;;;;;0.10;0.10;;;;;;;10.60;100.00;102096.28;10494864;28;20112;-76
2022/10/27 01:08:39;;;;;;;0.10;0.10;;;;;;;10.58;100.00;102108.88;10450083;28;20021;-76
2022/10/27 01:13:39;;;;;;;0.00;0.00;;;;;;;10.55;100.00;102108.28;10471416;28;20033;-77
2022/10/27 01:18:42;;;;;;;0.10;0.10;;;;;;;10.53;100.00;102104.91;10483922;28;20020;-78
2022/10/27 01:24:20;;;;;;;0.00;0.00;;;;;;;10.53;100.00;102120.88;10464957;28;20259;-77
2022/10/27 01:29:41;;;;;;;0.00;0.00;;;;;;;10.53;100.00;102116.44;10460406;28;20028;-78
2022/10/27 01:34:52;;;;;;;0.10;0.10;;;;;;;10.50;100.00;102116.69;10492042;28;20035;-78
2022/10/27 01:40:01;;;;;;;0.10;0.10;;;;;;;10.50;100.00;102111.38;10477289;28;20016;-78
2022/10/27 01:45:02;;;;;;;0.00;0.00;;;;;;;10.52;100.00;102121.88;10495303;28;20111;-77
2022/10/27 01:50:04;;;;;;;0.10;0.10;;;;;;;10.52;100.00;102128.03;10457230;28;20467;-77
2022/10/27 01:55:08;;;;;;;0.10;0.10;;;;;;;10.46;100.00;102128.56;10508154;22;20044;-77
2022/10/27 02:00:09;;;;;;;0.10;0.10;;;;;;;10.56;100.00;102142.81;10556344;28;20032;-77
2022/10/27 02:05:17;;;;;;;0.00;0.00;;;;;;;10.62;100.00;102146.78;10561272;28;20022;-77
2022/10/27 02:10:33;;;;;;;0.10;0.10;;;;;;;10.65;100.00;102141.22;10572636;28;20038;-76
2022/10/27 02:15:41;;;;;;;0.10;0.10;;;;;;;10.65;100.00;102141.22;10556953;28;20102;-77
2022/10/27 02:20:46;;;;;;;0.00;0.00;;;;;;;10.72;100.00;102170.84;10553154;28;20039;-77
2022/10/27 02:25:49;;;;;;;0.00;0.00;;;;;;;10.75;100.00;102160.78;10559540;28;20102;-78
2022/10/27 02:30:50;;;;;;;0.00;0.00;;;;;;;10.82;100.00;102161.97;10550946;28;20031;-77
2022/10/27 02:35:55;;;;;;;0.10;0.10;;;;;;;10.97;100.00;102167.84;10552844;28;20385;-77
2022/10/27 02:40:55;;;;;;;0.00;0.00;;;;;;;10.98;100.00;102174.84;10552054;28;20027;-77
2022/10/27 02:45:55;;;;;;;0.10;0.10;;;;;;;10.92;100.00;102172.69;10539439;28;20027;-77
2022/10/27 02:50:55;;;;;;;0.00;0.00;;;;;;;10.91;100.00;102178.16;10548974;28;20107;-77
2022/10/27 02:55:56;;;;;;;0.00;0.00;;;;;;;10.90;100.00;102184.47;10558451;28;20032;-76
2022/10/27 03:00:56;;;;;;;0.10;0.10;;;;;;;10.86;100.00;102190.06;10563023;28;20020;-77
2022/10/27 03:05:56;;;;;;;0.10;0.10;;;;;;;10.82;100.00;102211.75;10564538;28;20486;-77
2022/10/27 03:10:57;;;;;;;0.10;0.10;;;;;;;10.77;100.00;102212.13;10553224;28;20265;-77
2022/10/27 03:15:57;;;;;;;0.10;0.10;;;;;;;10.76;100.00;102207.78;10570231;28;20031;-77
2022/10/27 03:20:57;;;;;;;0.10;0.10;;;;;;;10.71;100.00;102204.66;10553327;28;20039;-77
2022/10/27 03:25:59;;;;;;;0.00;0.00;;;;;;;10.69;100.00;102206.59;10547018;28;20020;-77
2022/10/27 03:31:03;;;;;;;0.00;0.00;;;;;;;10.70;100.00;102213.59;10532374;28;20386;-76
2022/10/27 03:36:04;;;;;;;0.10;0.10;;;;;;;10.68;100.00;102220.06;10542890;28;20115;-75
2022/10/27 03:41:05;;;;;;;0.10;0.10;;;;;;;10.56;100.00;102214.75;10566487;28;20172;-76
2022/10/27 03:46:05;;;;;;;0.10;0.10;;;;;;;10.53;100.00;102219.47;10553263;28;20435;-75
2022/10/27 03:51:05;;;;;;;0.10;0.10;;;;;;;10.57;100.00;102223.59;10539215;28;20524;-76
2022/10/27 03:56:06;;;;;;;0.10;0.10;;;;;;;10.58;100.00;102230.59;10527552;28;20027;-77
2022/10/27 04:01:06;;;;;;;0.10;0.10;;;;;;;10.55;100.00;102237.03;10529240;28;20023;-77
2022/10/27 04:06:06;;;;;;;0.10;0.10;;;;;;;10.53;100.00;102238.13;10546479;28;20080;-75
2022/10/27 04:11:07;;;;;;;0.00;0.00;;;;;;;10.50;100.00;102239.25;10552578;28;20027;-76
2022/10/27 04:16:08;;;;;;;0.10;0.10;;;;;;;10.48;100.00;102240.31;10539795;28;20042;-76
2022/10/27 04:21:08;;;;;;;0.10;0.10;;;;;;;10.43;100.00;102240.69;10517274;28;20036;-76
2022/10/27 04:26:09;;;;;;;0.10;0.10;;;;;;;10.35;100.00;102235.97;10547433;28;20083;-75
2022/10/27 04:31:09;;;;;;;0.00;0.00;;;;;;;10.27;100.00;102230.44;10547528;28;20031;-77
2022/10/27 04:36:09;;;;;;;0.10;0.10;;;;;;;10.21;100.00;102220.25;10549506;28;20024;-76
2022/10/27 04:41:09;;;;;;;0.10;0.10;;;;;;;10.22;100.00;102224.59;10567408;28;20431;-77
2022/10/27 04:46:10;;;;;;;0.10;0.10;;;;;;;10.16;100.00;102231.25;10548610;28;20459;-76
2022/10/27 04:51:10;;;;;;;0.10;0.10;;;;;;;10.12;100.00;102224.47;10554302;28;20364;-76
2022/10/27 04:56:10;;;;;;;0.10;0.10;;;;;;;10.13;100.00;102230.66;10553103;28;20020;-77
2022/10/27 05:01:12;;;;;;;0.10;0.10;;;;;;;10.17;100.00;102232.94;10555046;28;20950;-77
2022/10/27 05:06:13;;;;;;;0.10;0.10;;;;;;;10.14;100.00;102230.50;10559833;28;20088;-76
2022/10/27 05:11:13;;;;;;;0.10;0.10;;;;;;;10.11;100.00;102236.09;10555498;28;20535;-77
2022/10/27 05:16:13;;;;;;;0.10;0.10;;;;;;;10.08;100.00;102240.81;10551278;28;20019;-77
2022/10/27 05:21:13;;;;;;;0.10;0.10;;;;;;;10.06;100.00;102246.25;10547562;28;20048;-77
2022/10/27 05:26:14;;;;;;;0.00;0.00;;;;;;;10.04;100.00;102245.53;10545582;28;20020;-77
2022/10/27 05:31:14;;;;;;;0.10;0.10;;;;;;;10.08;100.00;102248.78;10546257;28;20095;-76
2022/10/27 05:36:14;;;;;;;0.10;0.10;;;;;;;10.09;100.00;102250.47;10545367;28;20008;-77
2022/10/27 05:41:15;;;;;;;0.10;0.10;;;;;;;10.07;100.00;102255.09;10550052;28;20026;-76
2022/10/27 05:46:15;;;;;;;0.00;0.00;;;;;;;10.11;100.00;102252.06;10547542;28;20047;-77
2022/10/27 05:51:15;;;;;;;0.10;0.10;;;;;;;10.15;100.00;102261.50;10552018;28;20019;-76
2022/10/27 05:56:16;;;;;;;0.00;0.00;;;;;;;10.10;100.00;102246.88;10549641;28;20028;-76
2022/10/27 06:01:16;;;;;;;0.10;0.10;;;;;;;10.08;100.00;102262.09;10533576;28;20028;-76
2022/10/27 06:06:16;;;;;;;0.10;0.10;;;;;;;10.11;100.00;102264.53;10552354;28;20013;-76
2022/10/27 06:11:16;;;;;;;0.10;0.10;;;;;;;10.10;100.00;102265.50;10526343;28;20028;-76
2022/10/27 06:16:22;;;;;;;0.10;0.10;;;;;;;10.07;100.00;102265.75;10529692;28;20012;-76
2022/10/27 06:21:22;;;;;;;0.10;0.10;;;;;;;10.04;100.00;102266.84;10524099;28;20272;-76
2022/10/27 06:26:22;;;;;;;0.00;0.00;;;;;;;10.07;100.00;102274.56;10542271;28;20375;-76
2022/10/27 06:31:23;;;;;;;0.10;0.10;;;;;;;10.12;100.00;102272.41;10546921;28;20648;-76
2022/10/27 06:36:23;;;;;;;0.10;0.10;;;;;;;10.29;100.00;102267.56;10557342;28;20362;-77
2022/10/27 06:41:23;;;;;;;0.10;0.10;;;;;;;10.42;100.00;102271.81;10549326;28;20044;-77
2022/10/27 06:46:24;;;;;;;0.07;0.07;;;;;;;10.50;100.00;102267.66;10542955;28;20020;-77
2022/10/27 06:51:24;;;;;;;0.10;0.10;;;;;;;10.51;100.00;102275.56;10548647;28;20024;-77
2022/10/27 06:56:24;;;;;;;0.00;0.00;;;;;;;10.56;100.00;102280.50;10557742;28;20390;-77
2022/10/27 07:01:24;;;;;;;0.10;0.10;;;;;;;10.63;100.00;102279.03;10550094;28;20364;-76
2022/10/27 07:06:25;;;;;;;0.10;0.10;;;;;;;10.75;100.00;102285.19;10563675;28;20016;-77
2022/10/27 07:11:27;;;;;;;0.13;0.13;;;;;;;10.86;100.00;102287.84;10537037;28;20103;-77
2022/10/27 07:16:27;;;;;;;0.10;0.10;;;;;;;10.95;100.00;102286.25;10546683;28;20048;-76
2022/10/27 07:21:27;;;;;;;0.10;0.10;;;;;;;11.07;100.00;102295.88;10551234;28;20114;-77
2022/10/27 07:26:28;;;;;;;0.10;0.10;;;;;;;11.17;100.00;102293.28;10539883;28;20015;-77
2022/10/27 07:31:28;;;;;;;0.10;0.10;;;;;;;11.32;100.00;102308.88;10552650;28;20253;-77
2022/10/27 07:36:29;;;;;;;0.10;0.10;;;;;;;11.63;100.00;102322.31;10555755;28;20012;-77
2022/10/27 07:41:29;;;;;;;0.10;0.10;;;;;;;11.84;100.00;102316.13;10552686;28;20270;-77
2022/10/27 07:46:29;;;;;;;0.10;0.10;;;;;;;11.99;100.00;102318.38;10538489;28;20012;-77
2022/10/27 07:51:30;;;;;;;0.10;0.10;;;;;;;12.90;100.00;102321.09;10540598;28;20258;-78
2022/10/27 07:56:31;;;;;;;0.10;0.10;;;;;;;13.13;100.00;102313.69;10529708;22;20041;-78
2022/10/27 08:01:31;;;;;;;0.10;0.10;;;;;;;12.90;100.00;102324.63;10511885;28;20103;-79
2022/10/27 08:06:32;;;;;;;0.10;0.10;;;;;;;12.85;100.00;102326.00;10498201;28;20109;-78
2022/10/27 08:11:32;;;;;;;0.10;0.10;;;;;;;12.91;100.00;102326.31;10485977;28;20024;-78
2022/10/27 08:16:32;;;;;;;0.00;0.00;;;;;;;12.99;100.00;102324.78;10526674;28;20162;-78
2022/10/27 08:21:32;;;;;;;0.10;0.10;;;;;;;13.21;100.00;102326.38;10540276;28;20028;-78
2022/10/27 08:26:33;;;;;;;0.10;0.10;;;;;;;13.33;100.00;102328.78;10545241;28;20517;-79
2022/10/27 08:31:33;;;;;;;0.00;0.00;;;;;;;13.42;100.00;102328.94;10499620;28;20459;-79
2022/10/27 08:36:37;;;;;;;0.00;0.00;;;;;;;13.87;100.00;102330.97;10499622;28;20023;-79
2022/10/27 08:41:45;;;;;;;0.10;0.10;;;;;;;14.96;100.00;102326.75;10518665;28;20028;-79
2022/10/27 08:47:04;;;;;;;0.00;0.00;;;;;;;15.60;100.00;102327.50;10512080;28;20024;-79
2022/10/27 08:52:39;;;;;;;0.10;0.10;;;;;;;16.21;100.00;102331.97;10515521;28;20033;-79
2022/10/27 08:58:05;;;;;;;0.03;0.03;;;;;;;16.42;100.00;102330.75;10472500;28;20032;-80
2022/10/27 09:03:34;;;;;;;0.00;0.00;;;;;;;16.25;100.00;102330.66;10504348;28;20031;-79
2022/10/27 09:08:46;;;;;;;0.10;0.10;;;;;;;16.10;100.00;102326.03;10521630;28;20059;-79
2022/10/27 09:14:08;;;;;;;0.10;0.10;;;;;;;16.22;100.00;102327.44;10524757;28;20043;-80
2022/10/27 09:19:16;;;;;;;0.00;0.00;;;;;;;16.21;100.00;102313.16;10512299;28;20108;-79
2022/10/27 09:24:21;;;;;;;0.00;0.00;;;;;;;16.27;100.00;102309.00;10485898;28;20016;-79
2022/10/27 09:29:23;;;;;;;0.00;0.00;;;;;;;16.24;100.00;102318.22;10508811;28;20398;-80
2022/10/27 09:34:36;;;;;;;0.00;0.00;;;;;;;16.04;100.00;102316.75;10546957;28;20020;-79
2022/10/27 09:39:37;;;;;;;0.10;0.10;;;;;;;15.80;100.00;102312.91;10494919;28;20028;-79
2022/10/27 09:44:37;;;;;;;0.10;0.10;;;;;;;15.75;100.00;102319.75;10537784;28;20032;-79
2022/10/27 09:49:42;;;;;;;0.00;0.00;;;;;;;15.76;100.00;102327.66;10515553;28;20402;-79
2022/10/27 09:54:51;;;;;;;0.00;0.00;;;;;;;15.71;100.00;102321.94;10521506;28;20341;-78
2022/10/27 10:00:01;;;;;;;0.10;0.10;;;;;;;15.70;100.00;102332.81;10546148;28;20024;-78
2022/10/27 10:05:16;;;;;;;0.00;0.00;;;;;;;15.74;100.00;102323.47;10514211;28;20387;-78
2022/10/27 10:10:24;;;;;;;0.00;0.00;;;;;;;15.81;100.00;102325.34;10517188;28;20048;-80
2022/10/27 10:15:24;;;;;;;0.10;0.10;;;;;;;15.99;100.00;102327.13;10505909;28;20106;-79
2022/10/27 10:20:31;;;;;;;0.10;0.10;;;;;;;16.16;100.00;102325.41;10526999;28;20062;-80
2022/10/27 10:25:32;;;;;;;0.10;0.10;;;;;;;16.37;100.00;102320.47;10546103;28;20629;-80
2022/10/27 10:30:37;;;;;;;0.05;0.05;;;;;;;16.66;100.00;102309.31;10505015;28;20020;-80
2022/10/27 10:35:44;;;;;;;0.00;0.00;;;;;;;16.83;100.00;102314.78;10540759;28;20050;-79
2022/10/27 10:41:20;;;;;;;0.10;0.10;;;;;;;16.91;100.00;102312.13;10524921;28;20070;-79
2022/10/27 10:46:23;;;;;;;0.10;0.10;;;;;;;17.08;100.00;102315.69;10521595;28;20008;-79
2022/10/27 10:51:35;;;;;;;0.00;0.00;;;;;;;17.09;100.00;102320.06;10515570;28;20071;-80
2022/10/27 10:56:36;;;;;;;0.10;0.10;;;;;;;17.19;100.00;102309.94;10524357;28;20043;-80
2022/10/27 11:02:20;;;;;;;0.00;0.00;;;;;;;17.16;100.00;102302.22;10541685;28;20028;-80
2022/10/27 11:07:30;;;;;;;0.00;0.00;;;;;;;17.11;100.00;102293.81;10484471;28;20031;-77
2022/10/27 11:12:45;;;;;;;0.00;0.00;;;;;;;17.23;100.00;102289.78;10495739;28;20031;-78
2022/10/27 11:17:48;;;;;;;0.10;0.10;;;;;;;17.41;100.00;102281.53;10490409;28;20016;-79
2022/10/27 11:22:51;;;;;;;0.10;0.10;;;;;;;17.56;100.00;102273.59;10503251;28;20025;-79
2022/10/27 11:28:17;;;;;;;0.08;0.08;;;;;;;17.65;100.00;102272.56;10499454;28;20017;-77
2022/10/27 11:33:31;;;;;;;0.00;0.00;;;;;;;17.60;100.00;102265.03;10498931;28;20035;-78
2022/10/27 11:38:59;;;;;;;0.05;0.05;;;;;;;17.70;100.00;102253.22;10488096;28;20050;-79
2022/10/27 11:44:14;;;;;;;0.10;0.10;;;;;;;17.74;100.00;102249.16;10522246;28;20020;-80
2022/10/27 11:49:44;;;;;;;0.00;0.00;;;;;;;17.84;100.00;102249.84;10517225;28;20482;-78
2022/10/27 11:54:45;;;;;;;0.00;0.00;;;;;;;17.95;100.00;102252.19;10514631;28;20032;-79
2022/10/27 12:00:02;;;;;;;0.00;0.00;;;;;;;18.01;100.00;102246.09;10482056;28;20028;-79
2022/10/27 12:05:09;;;;;;;0.00;0.00;;;;;;;18.09;100.00;102251.47;10500488;28;20077;-79
2022/10/27 12:10:47;;;;;;;0.00;0.00;;;;;;;18.17;100.00;102244.34;10510536;28;20031;-77
2022/10/27 12:15:58;;;;;;;0.00;0.00;;;;;;;18.26;100.00;102229.81;10506596;28;20032;-80
2022/10/27 12:21:10;;;;;;;0.00;0.00;;;;;;;18.28;100.00;102227.78;10490096;28;20047;-79
2022/10/27 12:26:20;;;;;;;0.00;0.00;;;;;;;18.35;100.00;102219.81;10497006;28;20042;-80
2022/10/27 12:31:24;;;;;;;0.00;0.00;;;;;;;18.42;100.00;102218.94;10500924;28;20021;-80
2022/10/27 12:37:07;;;;;;;0.00;0.00;;;;;;;18.45;100.00;102212.34;10511607;28;20024;-81
2022/10/27 12:42:20;;;;;;;;;;;;;;;18.46;100.00;102205.94;10496940;28;20453;-81
2022/10/27 12:47:30;;;;;;;0.00;0.00;;;;;;;18.44;100.00;102200.72;10490318;28;19914;-80
2022/10/27 12:52:37;;;;;;;0.10;0.10;;;;;;;18.43;100.00;102198.19;10499350;28;20054;-79
2022/10/27 12:58:00;;;;;;;0.08;0.08;;;;;;;18.43;100.00;102182.84;10509655;28;20455;-79
2022/10/27 13:03:09;;;;;;;0.00;0.00;;;;;;;18.45;100.00;102174.59;10519943;28;20025;-81
2022/10/27 13:08:16;;;;;;;0.03;0.03;;;;;;;18.47;100.00;102172.53;10532732;28;20107;-80
2022/10/27 13:13:19;;;;;;;0.10;0.10;;;;;;;18.50;100.00;102158.69;10508814;28;20035;-80
2022/10/27 13:18:31;;;;;;;0.00;0.00;;;;;;;18.50;100.00;102161.38;10501460;28;20043;-80
2022/10/27 13:23:38;;;;;;;0.10;0.10;;;;;;;18.48;100.00;102158.03;10519655;28;20082;-81
2022/10/27 13:28:49;;;;;;;0.00;0.00;;;;;;;18.44;100.00;102140.50;10523273;28;20344;-80
2022/10/27 13:34:02;;;;;;;0.00;0.00;;;;;;;18.40;100.00;102142.72;10517908;28;20141;-80
2022/10/27 13:39:14;;;;;;;0.10;0.10;;;;;;;18.33;100.00;102139.09;10512772;28;20024;-81
2022/10/27 13:44:28;;;;;;;0.00;0.00;;;;;;;18.27;100.00;102142.50;10522324;28;20031;-80
2022/10/27 13:49:40;;;;;;;0.00;0.00;;;;;;;18.19;100.00;102139.84;10519315;28;20035;-80
2022/10/27 13:55:00;;;;;;;0.00;0.00;;;;;;;18.11;100.00;102129.94;10511744;28;20021;-79
2022/10/27 14:00:10;;;;;;;0.00;0.00;;;;;;;18.05;100.00;102131.47;10527513;28;20047;-79
2022/10/27 14:05:44;;;;;;;0.00;0.00;;;;;;;18.02;100.00;102123.75;10519774;28;20028;-81
2022/10/27 14:10:45;;;;;;;0.10;0.10;;;;;;;18.00;100.00;102120.38;10525324;28;20103;-81
2022/10/27 14:15:48;;;;;;;0.00;0.00;;;;;;;17.94;100.00;102104.91;10506763;28;20535;-80
2022/10/27 14:20:52;;;;;;;0.08;0.08;;;;;;;17.86;100.00;102104.97;10493127;28;20032;-80
2022/10/27 14:25:52;;;;;;;0.10;0.10;;;;;;;17.72;100.00;102101.13;10525861;28;20051;-81
2022/10/27 14:31:10;;;;;;;0.10;0.10;;;;;;;17.60;100.00;102108.75;10515965;28;20099;-80
2022/10/27 14:36:23;;;;;;;0.10;0.10;;;;;;;17.50;100.00;102097.34;10493471;28;20016;-81
2022/10/27 14:41:30;;;;;;;0.08;0.08;;;;;;;17.43;100.00;102096.38;10502096;28;20103;-78
2022/10/27 14:46:41;;;;;;;0.10;0.10;;;;;;;17.40;100.00;102099.41;10522642;28;20012;-81
2022/10/27 14:51:46;;;;;;;0.05;0.05;;;;;;;17.36;100.00;102079.19;10494261;28;20016;-81
2022/10/27 14:56:46;;;;;;;0.03;0.03;;;;;;;17.31;100.00;102077.03;10506373;28;20035;-80
2022/10/27 15:01:47;;;;;;;0.00;0.00;;;;;;;17.23;100.00;102077.06;10513683;28;20031;-81
2022/10/27 15:06:50;;;;;;;0.00;0.00;;;;;;;17.18;100.00;102072.19;10518288;28;20023;-79
2022/10/27 15:11:51;;;;;;;0.00;0.00;;;;;;;17.12;100.00;102067.50;10511441;28;20024;-78
2022/10/27 15:16:51;;;;;;;0.00;0.00;;;;;;;17.09;100.00;102067.00;10509981;28;20025;-79
2022/10/27 15:21:52;;;;;;;0.00;0.00;;;;;;;16.98;100.00;102050.19;10508080;28;20055;-79
2022/10/27 15:26:54;;;;;;;0.00;0.00;;;;;;;16.89;100.00;102063.84;10500092;28;20016;-79
2022/10/27 15:31:58;;;;;;;0.00;0.00;;;;;;;16.79;100.00;102072.09;10510874;28;20052;-79
2022/10/27 15:37:25;;;;;;;0.10;0.10;;;;;;;16.71;100.00;102058.63;10514046;28;20032;-77
2022/10/27 15:42:26;;;;;;;0.10;0.10;;;;;;;16.59;100.00;102047.38;10483522;28;20071;-79
2022/10/27 15:47:47;;;;;;;0.00;0.00;;;;;;;16.57;100.00;102059.31;10516418;28;20017;-80
2022/10/27 15:52:49;;;;;;;0.10;0.10;;;;;;;16.45;100.00;102054.25;10503803;28;20363;-81
2022/10/27 15:57:50;;;;;;;0.00;0.00;;;;;;;16.35;100.00;102058.09;10507589;28;20078;-81
2022/10/27 16:02:55;;;;;;;0.00;0.00;;;;;;;16.17;100.00;102055.56;10499198;28;20027;-80
2022/10/27 16:08:04;;;;;;;0.00;0.00;;;;;;;15.97;100.00;102050.53;10522702;28;20020;-80
2022/10/27 16:13:05;;;;;;;0.00;0.00;;;;;;;15.85;100.00;102038.38;10515348;28;20036;-81
2022/10/27 16:18:12;;;;;;;0.00;0.00;;;;;;;15.84;100.00;102034.84;10495118;28;20028;-79
2022/10/27 16:23:14;;;;;;;0.10;0.10;;;;;;;15.82;100.00;102034.19;10511580;28;20044;-79
2022/10/27 16:28:23;;;;;;;0.10;0.10;;;;;;;15.77;100.00;102033.00;10498090;28;20032;-81
2022/10/27 16:33:23;;;;;;;0.10;0.10;;;;;;;15.72;100.00;102025.44;10510281;28;20360;-80
2022/10/27 16:38:23;;;;;;;0.10;0.10;;;;;;;15.76;100.00;102025.94;10494273;28;20029;-81
2022/10/27 16:43:32;;;;;;;0.10;0.10;;;;;;;15.74;100.00;102018.06;10519241;28;20610;-81
2022/10/27 16:48:32;;;;;;;0.10;0.10;;;;;;;15.78;100.00;102005.13;10516808;28;20021;-81
2022/10/27 16:53:33;;;;;;;0.00;0.00;;;;;;;15.76;100.00;101997.22;10526924;28;20012;-80
2022/10/27 16:58:40;;;;;;;0.00;0.00;;;;;;;15.74;100.00;101993.88;10509940;28;20431;-80
2022/10/27 17:03:41;;;;;;;0.00;0.00;;;;;;;15.73;100.00;101991.34;10515354;28;20016;-80
2022/10/27 17:08:41;;;;;;;0.00;0.00;;;;;;;15.71;100.00;101991.53;10510628;28;20030;-80
2022/10/27 17:13:42;;;;;;;0.10;0.10;;;;;;;15.69;100.00;101981.94;10527265;28;20020;-80
2022/10/27 17:18:43;;;;;;;0.00;0.00;;;;;;;15.66;100.00;101984.94;10528663;28;20023;-81
2022/10/27 17:23:44;;;;;;;0.00;0.00;;;;;;;15.60;100.00;101989.94;10523542;28;20622;-80
2022/10/27 17:28:47;;;;;;;0.10;0.10;;;;;;;15.55;100.00;101968.09;10489511;28;20028;-80
2022/10/27 17:33:47;;;;;;;0.10;0.10;;;;;;;15.49;100.00;101979.50;10505950;28;20016;-81
2022/10/27 17:38:47;;;;;;;0.10;0.10;;;;;;;15.49;100.00;101974.13;10519207;28;20016;-78
2022/10/27 17:43:49;;;;;;;0.00;0.00;;;;;;;15.49;100.00;101965.25;10517604;28;20078;-79
2022/10/27 17:48:54;;;;;;;0.00;0.00;;;;;;;15.50;100.00;101966.91;10496337;28;20019;-80
2022/10/27 17:53:56;;;;;;;0.10;0.10;;;;;;;15.52;100.00;101935.38;10515080;28;20038;-80
2022/10/27 17:58:56;;;;;;;0.00;0.00;;;;;;;15.66;100.00;101925.84;10517635;28;20021;-77
2022/10/27 18:04:06;;;;;;;0.10;0.10;;;;;;;15.70;100.00;101937.97;10504888;28;20028;-80
2022/10/27 18:09:08;;;;;;;0.10;0.10;;;;;;;15.61;100.00;101948.66;10503392;28;20074;-80
2022/10/27 18:14:12;;;;;;;0.10;0.10;;;;;;;15.46;100.00;101936.88;10505164;28;20057;-80
2022/10/27 18:19:14;;;;;;;0.00;0.00;;;;;;;15.36;100.00;101938.88;10520946;28;20073;-79
2022/10/27 18:24:16;;;;;;;0.00;0.00;;;;;;;15.30;100.00;101931.44;10528251;28;20127;-80
2022/10/27 18:29:17;;;;;;;0.00;0.00;;;;;;;15.26;100.00;101928.25;10520755;28;20044;-79
2022/10/27 18:34:17;;;;;;;0.10;0.10;;;;;;;15.27;100.00;101923.72;10509014;28;21197;-79
2022/10/27 18:39:18;;;;;;;0.10;0.10;;;;;;;15.33;100.00;101920.38;10490764;28;20111;-80
2022/10/27 18:44:18;;;;;;;0.10;0.10;;;;;;;15.35;100.00;101908.47;10505726;28;20021;-78
2022/10/27 18:49:19;;;;;;;0.10;0.10;;;;;;;15.36;100.00;101910.19;10513935;28;20031;-79
2022/10/27 18:54:19;;;;;;;0.00;0.00;;;;;;;15.35;100.00;101900.44;10517890;28;20182;-79
2022/10/27 18:59:19;;;;;;;0.00;0.00;;;;;;;15.35;100.00;101889.69;10512474;28;20274;-80
2022/10/27 19:04:20;;;;;;;0.10;0.10;;;;;;;15.44;100.00;101877.13;10512049;28;20024;-79
2022/10/27 19:09:20;;;;;;;0.10;0.10;;;;;;;15.51;100.00;101880.00;10499057;28;20024;-79
2022/10/27 19:14:20;;;;;;;0.00;0.00;;;;;;;15.41;100.00;101877.47;10528795;28;20469;-79
2022/10/27 19:19:21;;;;;;;0.00;0.00;;;;;;;15.36;100.00;101869.09;10507204;28;20350;-78
2022/10/27 19:24:21;;;;;;;0.00;0.00;;;;;;;15.30;100.00;101881.31;10517433;28;20025;-79
2022/10/27 19:29:21;;;;;;;0.10;0.10;;;;;;;15.20;100.00;101893.19;10510898;28;20098;-80
2022/10/27 19:34:22;;;;;;;0.10;0.10;;;;;;;15.08;100.00;101898.03;10523434;28;20158;-78
2022/10/27 19:39:22;;;;;;;0.00;0.00;;;;;;;14.95;100.00;101903.81;10539214;28;20043;-77
2022/10/27 19:44:24;;;;;;;0.10;0.10;;;;;;;14.90;100.00;101898.97;10534422;28;20080;-77
2022/10/27 19:49:25;;;;;;;0.10;0.10;;;;;;;14.81;100.00;101894.56;10534980;28;20120;-76
2022/10/27 19:54:25;;;;;;;0.10;0.10;;;;;;;14.69;100.00;101896.69;10533142;28;20052;-76
2022/10/27 20:04:28;;;;;;;0.10;0.10;;;;;;;14.50;100.00;101894.19;10492354;28;20643;-76
2022/10/27 20:09:28;;;;;;;0.10;0.10;;;;;;;14.38;100.00;101892.78;10501708;28;20029;-78
2022/10/27 20:14:30;;;;;;;0.00;0.00;;;;;;;14.30;100.00;101892.75;10502214;28;20028;-76
2022/10/27 20:19:32;;;;;;;0.10;0.10;;;;;;;14.27;100.00;101888.53;10502438;28;20028;-77
2022/10/27 20:24:32;;;;;;;0.10;0.10;;;;;;;14.22;100.00;101886.34;10501899;28;20085;-78
2022/10/27 20:29:32;;;;;;;0.00;0.00;;;;;;;14.20;100.00;101890.16;10501512;28;20058;-77
2022/10/27 20:34:33;;;;;;;0.10;0.10;;;;;;;14.15;100.00;101892.47;10500948;28;20031;-77
2022/10/27 20:39:33;;;;;;;0.10;0.10;;;;;;;14.08;100.00;101886.03;10502185;28;20621;-78
2022/10/27 20:44:33;;;;;;;0.10;0.10;;;;;;;14.02;100.00;101884.81;10500425;28;20491;-78
2022/10/27 20:49:34;;;;;;;0.10;0.10;;;;;;;14.00;100.00;101870.75;10498253;28;20162;-76
2022/10/27 20:54:34;;;;;;;0.10;0.10;;;;;;;14.01;100.00;101867.91;10499354;28;20024;-76
2022/10/27 20:59:34;;;;;;;0.10;0.10;;;;;;;13.98;100.00;101873.59;10499355;28;20365;-79
2022/10/27 21:04:35;;;;;;;0.00;0.00;;;;;;;13.99;100.00;101855.66;10499589;28;20029;-78
2022/10/27 21:09:35;;;;;;;0.10;0.10;;;;;;;13.99;100.00;101851.19;10498885;28;20025;-78
2022/10/27 21:14:35;;;;;;;0.10;0.10;;;;;;;13.97;100.00;101855.84;10498936;28;20024;-78
2022/10/27 21:19:35;;;;;;;0.10;0.10;;;;;;;13.93;100.00;101851.81;10497940;28;20082;-78
2022/10/27 21:24:37;;;;;;;0.10;0.10;;;;;;;13.87;100.00;101848.88;10499803;28;20108;-78
2022/10/27 21:29:37;;;;;;;0.10;0.10;;;;;;;13.89;100.00;101842.38;10498969;28;20056;-78
2022/10/27 21:34:37;;;;;;;0.10;0.10;;;;;;;13.92;100.00;101839.41;10498198;28;20107;-78
2022/10/27 21:39:38;;;;;;;0.10;0.10;;;;;;;13.93;100.00;101841.09;10500964;28;20562;-78
2022/10/27 21:44:38;;;;;;;0.10;0.10;;;;;;;13.91;100.00;101848.44;10497938;28;20417;-78
2022/10/27 21:49:39;;;;;;;0.10;0.10;;;;;;;13.83;100.00;101845.69;10501520;28;20024;-78
2022/10/27 21:54:39;;;;;;;0.10;0.10;;;;;;;13.82;100.00;101847.53;10501621;28;20107;-76
2022/10/27 21:59:39;;;;;;;0.00;0.00;;;;;;;13.78;100.00;101856.03;10500673;28;20020;-77
2022/10/27 22:04:39;;;;;;;0.10;0.10;;;;;;;13.77;100.00;101855.19;10501499;28;20126;-78
2022/10/27 22:09:40;;;;;;;0.10;0.10;;;;;;;13.74;100.00;101849.31;10497736;28;20028;-78
2022/10/27 22:14:40;;;;;;;0.10;0.10;;;;;;;13.76;100.00;101847.31;10498598;28;20028;-78
2022/10/27 22:19:40;;;;;;;0.00;0.00;;;;;;;13.85;100.00;101849.06;10500711;28;20066;-78
2022/10/27 22:24:40;;;;;;;0.03;0.03;;;;;;;13.93;100.00;101840.22;10462514;28;20031;-78
2022/10/27 22:29:43;;;;;;;0.10;0.10;;;;;;;13.99;100.00;101856.53;10460060;28;20036;-78
2022/10/27 22:34:43;;;;;;;0.10;0.10;;;;;;;14.02;100.00;101848.19;10460335;28;20024;-78
2022/10/27 22:39:43;;;;;;;0.10;0.10;;;;;;;14.08;100.00;101856.56;10463681;28;20021;-78
2022/10/27 22:44:44;;;;;;;0.10;0.10;;;;;;;14.11;100.00;101856.25;10501799;28;20024;-78
2022/10/27 22:49:44;;;;;;;0.10;0.10;;;;;;;14.07;100.00;101863.78;10500836;28;20021;-78
2022/10/27 22:54:44;;;;;;;0.10;0.10;;;;;;;14.02;100.00;101866.06;10499556;28;20021;-78
2022/10/27 22:59:44;;;;;;;0.10;0.10;;;;;;;13.97;100.00;101877.28;10486274;28;20104;-78
2022/10/27 23:04:45;;;;;;;0.10;0.10;;;;;;;13.93;100.00;101869.69;10457964;28;20033;-78
2022/10/27 23:09:45;;;;;;;0.10;0.10;;;;;;;13.91;100.00;101867.19;10458884;28;20041;-78